createdAt,value
2022-08-29T00:01:05.618Z,3.92
2022-08-29T00:03:33.771Z,4.13
2022-08-29T00:06:01.618Z,5.35
2022-08-29T00:08:29.588Z,4.32
2022-08-29T00:10:57.272Z,4.47
2022-08-29T00:13:25.170Z,5.35
2022-08-29T00:15:59.399Z,5.07
2022-08-29T00:18:27.630Z,4.90
2022-08-29T00:20:55.423Z,5.45
2022-08-29T00:23:23.131Z,4.68
2022-08-29T00:25:51.244Z,5.30
2022-08-29T00:28:19.246Z,5.00
2022-08-29T00:30:47.257Z,4.40
2022-08-29T00:33:15.397Z,6.00
2022-08-29T00:35:44.661Z,5.40
2022-08-29T00:38:14.293Z,5.97
2022-08-29T00:40:51.563Z,7.20
2022-08-29T00:43:21.224Z,6.00
2022-08-29T00:46:04.773Z,6.07
2022-08-29T00:48:32.712Z,6.38
2022-08-29T00:51:02.820Z,5.47
2022-08-29T00:53:32.734Z,6.35
2022-08-29T00:56:00.754Z,5.38
2022-08-29T00:58:37.192Z,6.32
2022-08-29T01:01:06.606Z,6.05
2022-08-29T01:03:35.448Z,6.35
2022-08-29T01:06:04.000Z,6.45
2022-08-29T01:08:32.569Z,6.10
2022-08-29T01:11:19.260Z,6.30
2022-08-29T01:13:49.630Z,6.38
2022-08-29T01:16:20.414Z,6.63
2022-08-29T01:18:49.761Z,6.95
2022-08-29T01:21:20.918Z,7.20
2022-08-29T01:24:02.450Z,7.25
2022-08-29T01:26:30.996Z,7.53
2022-08-29T01:28:59.333Z,7.10
2022-08-29T01:31:55.832Z,7.03
2022-08-29T01:34:26.403Z,7.53
2022-08-29T01:36:55.287Z,7.15
2022-08-29T01:39:24.590Z,7.32
2022-08-29T01:41:53.054Z,6.97
2022-08-29T01:44:22.434Z,7.05
2022-08-29T01:46:51.488Z,7.72
2022-08-29T01:49:20.651Z,6.95
2022-08-29T01:51:48.812Z,7.55
2022-08-29T01:54:17.218Z,7.88
2022-08-29T01:56:47.864Z,8.10
2022-08-29T01:59:16.884Z,8.45
2022-08-29T02:01:49.697Z,9.88
2022-08-29T02:04:17.864Z,9.07
2022-08-29T02:06:46.581Z,8.68
2022-08-29T02:09:14.426Z,8.65
2022-08-29T02:11:42.474Z,8.57
2022-08-29T02:14:13.246Z,8.07
2022-08-29T02:16:47.347Z,8.07
2022-08-29T02:19:15.682Z,7.70
2022-08-29T02:21:44.598Z,7.88
2022-08-29T02:24:25.073Z,8.27
2022-08-29T02:29:21.868Z,8.25
2022-08-29T02:31:49.891Z,9.32
2022-08-29T02:34:18.496Z,10.02
2022-08-29T02:36:49.073Z,9.80
2022-08-29T02:39:17.156Z,9.85
2022-08-29T02:41:45.222Z,9.73
2022-08-29T02:44:13.620Z,9.68
2022-08-29T02:46:41.464Z,8.77
2022-08-29T02:49:09.486Z,9.07
2022-08-29T02:51:37.614Z,8.98
2022-08-29T02:54:06.288Z,9.00
2022-08-29T02:56:34.507Z,10.07
2022-08-29T02:59:02.586Z,8.95
2022-08-29T03:01:32.515Z,10.23
2022-08-29T03:04:00.526Z,9.45
2022-08-29T03:06:28.439Z,8.95
2022-08-29T03:08:56.644Z,8.82
2022-08-29T03:11:25.377Z,8.98
2022-08-29T03:13:57.520Z,8.63
2022-08-29T03:16:26.573Z,9.13
2022-08-29T03:18:55.346Z,9.68
2022-08-29T03:21:24.837Z,8.07
2022-08-29T03:23:52.798Z,8.30
2022-08-29T03:26:20.960Z,9.05
2022-08-29T03:28:49.458Z,8.63
2022-08-29T03:31:17.778Z,8.80
2022-08-29T03:33:46.024Z,8.68
2022-08-29T03:36:14.956Z,8.70
2022-08-29T03:38:44.705Z,8.63
2022-08-29T03:41:12.820Z,8.57
2022-08-29T03:43:41.153Z,8.15
2022-08-29T03:46:09.137Z,8.35
2022-08-29T03:48:36.990Z,7.60
2022-08-29T03:51:05.092Z,8.88
2022-08-29T03:53:33.628Z,8.18
2022-08-29T03:56:01.996Z,8.35
2022-08-29T03:58:29.924Z,8.00
2022-08-29T04:00:57.737Z,7.85
2022-08-29T04:03:30.956Z,9.10
2022-08-29T04:05:59.821Z,8.23
2022-08-29T04:08:28.018Z,8.10
2022-08-29T04:10:56.139Z,8.07
2022-08-29T04:13:23.938Z,8.40
2022-08-29T04:15:52.152Z,9.48
2022-08-29T04:18:21.641Z,9.80
2022-08-29T04:20:50.764Z,10.20
2022-08-29T04:23:18.716Z,10.20
2022-08-29T04:25:46.743Z,9.77
2022-08-29T04:28:15.204Z,10.52
2022-08-29T04:30:51.457Z,9.98
2022-08-29T04:33:22.757Z,8.38
2022-08-29T04:35:51.286Z,7.80
2022-08-29T04:38:19.222Z,8.88
2022-08-29T04:40:47.647Z,8.75
2022-08-29T04:43:16.086Z,7.88
2022-08-29T04:45:44.148Z,8.63
2022-08-29T04:48:12.368Z,7.57
2022-08-29T04:50:40.567Z,7.68
2022-08-29T04:53:08.404Z,7.35
2022-08-29T04:55:36.440Z,8.95
2022-08-29T04:58:04.525Z,8.88
2022-08-29T05:00:32.302Z,8.77
2022-08-29T05:03:00.651Z,7.75
2022-08-29T05:05:29.101Z,8.00
2022-08-29T05:07:56.764Z,7.18
2022-08-29T05:10:25.559Z,8.32
2022-08-29T05:12:53.305Z,8.60
2022-08-29T05:15:21.234Z,8.82
2022-08-29T05:17:49.137Z,7.97
2022-08-29T05:20:18.294Z,7.93
2022-08-29T05:22:46.361Z,7.80
2022-08-29T05:25:18.254Z,8.57
2022-08-29T05:27:47.078Z,8.25
2022-08-29T05:30:15.568Z,7.22
2022-08-29T05:32:43.682Z,8.02
2022-08-29T05:35:11.904Z,7.70
2022-08-29T05:37:40.420Z,8.07
2022-08-29T05:40:08.595Z,8.15
2022-08-29T05:42:36.359Z,7.97
2022-08-29T05:45:05.345Z,7.68
2022-08-29T05:47:33.709Z,7.85
2022-08-29T05:50:01.948Z,9.52
2022-08-29T05:52:29.903Z,8.30
2022-08-29T05:54:57.555Z,9.20
2022-08-29T05:57:25.392Z,9.02
2022-08-29T05:59:54.059Z,9.15
2022-08-29T06:02:22.691Z,9.15
2022-08-29T06:04:50.926Z,9.43
2022-08-29T06:07:19.124Z,9.40
2022-08-29T06:09:47.403Z,9.82
2022-08-29T06:12:16.435Z,8.85
2022-08-29T06:14:50.534Z,9.30
2022-08-29T06:17:18.759Z,8.85
2022-08-29T06:19:46.896Z,7.85
2022-08-29T06:22:14.844Z,8.98
2022-08-29T06:24:44.606Z,8.55
2022-08-29T06:27:13.303Z,8.35
2022-08-29T06:29:43.514Z,8.10
2022-08-29T06:32:12.356Z,8.95
2022-08-29T06:34:40.484Z,9.27
2022-08-29T06:37:08.428Z,8.20
2022-08-29T06:39:36.599Z,7.93
2022-08-29T06:42:04.768Z,9.07
2022-08-29T06:44:33.167Z,8.50
2022-08-29T06:47:00.981Z,8.07
2022-08-29T06:49:29.000Z,8.55
2022-08-29T06:51:58.574Z,7.20
2022-08-29T06:54:28.033Z,8.20
2022-08-29T06:56:57.188Z,8.60
2022-08-29T06:59:25.188Z,7.95
2022-08-29T07:01:53.576Z,7.35
2022-08-29T07:04:21.645Z,8.40
2022-08-29T07:06:50.868Z,8.07
2022-08-29T07:09:18.683Z,8.32
2022-08-29T07:11:46.780Z,7.95
2022-08-29T07:14:14.864Z,7.93
2022-08-29T07:16:43.287Z,7.82
2022-08-29T07:19:11.559Z,7.45
2022-08-29T07:21:40.109Z,7.40
2022-08-29T07:24:08.445Z,8.38
2022-08-29T07:26:42.684Z,8.25
2022-08-29T07:29:12.892Z,8.05
2022-08-29T07:31:40.875Z,8.50
2022-08-29T07:34:09.506Z,8.02
2022-08-29T07:36:37.831Z,8.55
2022-08-29T07:39:08.251Z,8.05
2022-08-29T07:41:36.097Z,7.80
2022-08-29T07:44:04.068Z,8.93
2022-08-29T07:46:32.789Z,8.00
2022-08-29T07:49:01.031Z,8.52
2022-08-29T07:51:29.314Z,8.98
2022-08-29T07:53:57.990Z,7.80
2022-08-29T07:56:33.391Z,8.48
2022-08-29T07:59:04.968Z,9.05
2022-08-29T08:01:32.776Z,9.13
2022-08-29T08:04:00.819Z,7.78
2022-08-29T08:06:29.053Z,8.13
2022-08-29T08:08:58.550Z,8.13
2022-08-29T08:11:27.180Z,8.13
2022-08-29T08:13:56.792Z,10.55
2022-08-29T08:16:26.264Z,9.25
2022-08-29T08:18:54.956Z,9.10
2022-08-29T08:21:23.596Z,9.25
2022-08-29T08:23:51.617Z,8.43
2022-08-29T08:26:20.027Z,8.35
2022-08-29T08:28:48.445Z,8.13
2022-08-29T08:31:17.233Z,9.10
2022-08-29T08:33:46.013Z,9.90
2022-08-29T08:36:19.774Z,9.80
2022-08-29T08:38:48.097Z,9.02
2022-08-29T08:41:20.393Z,9.23
2022-08-29T08:43:50.611Z,9.60
2022-08-29T08:46:19.739Z,9.25
2022-08-29T08:48:49.108Z,7.35
2022-08-29T08:51:21.719Z,7.93
2022-08-29T08:53:51.048Z,7.97
2022-08-29T08:56:43.650Z,8.70
2022-08-29T08:59:11.716Z,9.50
2022-08-29T09:01:41.880Z,9.13
2022-08-29T09:04:11.699Z,10.30
2022-08-29T09:06:45.547Z,8.95
2022-08-29T09:09:18.646Z,8.88
2022-08-29T09:11:56.542Z,7.75
2022-08-29T09:14:24.356Z,8.25
2022-08-29T09:16:54.588Z,8.38
2022-08-29T09:19:22.800Z,8.40
2022-08-29T09:21:54.094Z,8.68
2022-08-29T09:24:24.824Z,8.32
2022-08-29T09:26:52.950Z,9.55
2022-08-29T09:29:22.252Z,8.70
2022-08-29T09:32:05.076Z,9.55
2022-08-29T09:35:06.718Z,8.60
2022-08-29T09:37:32.902Z,9.73
2022-08-29T09:40:06.557Z,9.63
2022-08-29T09:42:36.711Z,9.27
2022-08-29T09:45:08.636Z,9.52
2022-08-29T09:47:37.341Z,9.38
2022-08-29T09:50:05.192Z,10.57
2022-08-29T09:52:33.430Z,10.88
2022-08-29T09:55:18.098Z,9.93
2022-08-29T09:57:50.386Z,9.43
2022-08-29T10:00:24.810Z,9.05
2022-08-29T10:02:55.368Z,10.07
2022-08-29T10:05:32.341Z,9.88
2022-08-29T10:08:00.343Z,9.70
2022-08-29T10:10:31.386Z,8.77
2022-08-29T10:15:50.823Z,9.73
2022-08-29T10:18:21.691Z,8.80
2022-08-29T10:21:14.423Z,8.98
2022-08-29T10:23:45.641Z,8.52
2022-08-29T10:26:32.108Z,9.48
2022-08-29T10:29:05.387Z,8.25
2022-08-29T10:31:36.079Z,9.50
2022-08-29T10:34:07.360Z,9.32
2022-08-29T10:36:38.041Z,8.77
2022-08-29T10:39:28.961Z,8.75
2022-08-29T10:41:56.892Z,9.40
2022-08-29T10:44:31.025Z,8.88
2022-08-29T10:47:01.736Z,8.48
2022-08-29T10:49:32.609Z,8.95
2022-08-29T10:54:47.002Z,8.27
2022-08-29T10:57:19.654Z,8.75
2022-08-29T11:00:04.279Z,8.95
2022-08-29T11:02:38.732Z,8.68
2022-08-29T11:05:12.576Z,9.02
2022-08-29T11:08:16.023Z,8.80
2022-08-29T11:10:51.206Z,8.73
2022-08-29T11:13:28.430Z,8.00
2022-08-29T11:16:02.358Z,8.85
2022-08-29T11:18:33.446Z,8.35
2022-08-29T11:21:21.550Z,8.50
2022-08-29T11:23:49.883Z,8.00
2022-08-29T11:26:22.299Z,7.88
2022-08-29T11:28:59.074Z,7.53
2022-08-29T11:31:45.328Z,7.53
2022-08-29T11:34:13.212Z,7.82
2022-08-29T11:36:59.341Z,8.20
2022-08-29T11:39:30.271Z,7.72
2022-08-29T11:42:04.224Z,7.40
2022-08-29T11:44:32.308Z,7.85
2022-08-29T11:47:00.602Z,7.15
2022-08-29T11:49:31.667Z,6.65
2022-08-29T11:52:17.702Z,7.25
2022-08-29T11:55:06.785Z,6.75
2022-08-29T11:57:34.612Z,8.82
2022-08-29T12:00:03.163Z,8.82
2022-08-29T12:02:34.467Z,8.93
2022-08-29T12:05:22.470Z,7.20
2022-08-29T12:07:55.945Z,8.02
2022-08-29T12:10:24.880Z,7.65
2022-08-29T12:12:52.602Z,7.50
2022-08-29T12:15:36.636Z,6.20
2022-08-29T12:18:24.353Z,6.85
2022-08-29T12:20:53.700Z,6.72
2022-08-29T12:23:21.462Z,7.80
2022-08-29T12:26:09.661Z,8.50
2022-08-29T12:28:47.436Z,7.00
2022-08-29T12:31:22.060Z,6.97
2022-08-29T12:34:08.728Z,7.15
2022-08-29T12:36:55.282Z,7.53
2022-08-29T12:39:27.485Z,7.95
2022-08-29T12:42:14.095Z,7.60
2022-08-29T12:44:43.761Z,7.38
2022-08-29T12:47:27.035Z,6.60
2022-08-29T12:50:21.078Z,7.22
2022-08-29T12:53:04.157Z,6.07
2022-08-29T12:55:41.026Z,6.32
2022-08-29T12:58:09.958Z,6.70
2022-08-29T13:00:38.188Z,6.90
2022-08-29T13:03:17.641Z,6.88
2022-08-29T13:05:45.709Z,6.25
2022-08-29T13:08:15.875Z,6.03
2022-08-29T13:11:00.509Z,6.07
2022-08-29T13:13:29.672Z,5.90
2022-08-29T13:15:59.080Z,6.28
2022-08-29T13:18:27.436Z,5.93
2022-08-29T13:21:06.794Z,6.18
2022-08-29T13:23:38.913Z,6.05
2022-08-29T13:26:10.478Z,6.03
2022-08-29T13:28:47.161Z,6.13
2022-08-29T13:31:15.381Z,6.68
2022-08-29T13:33:49.729Z,6.15
2022-08-29T13:36:36.229Z,6.03
2022-08-29T13:39:19.568Z,6.10
2022-08-29T13:41:52.446Z,5.13
2022-08-29T13:44:24.650Z,5.72
2022-08-29T13:46:53.960Z,5.72
2022-08-29T13:49:23.556Z,5.07
2022-08-29T13:51:52.458Z,5.30
2022-08-29T13:54:20.365Z,5.85
2022-08-29T13:56:54.144Z,5.18
2022-08-29T13:59:22.990Z,5.22
2022-08-29T14:04:41.033Z,4.97
2022-08-29T14:07:19.428Z,4.47
2022-08-29T14:09:48.266Z,7.32
2022-08-29T14:12:16.445Z,6.30
2022-08-29T14:14:44.723Z,6.68
2022-08-29T14:17:18.475Z,5.60
2022-08-29T14:19:47.912Z,5.25
2022-08-29T14:22:15.750Z,5.20
2022-08-29T14:24:43.874Z,5.40
2022-08-29T14:27:11.930Z,4.70
2022-08-29T14:29:39.688Z,4.70
2022-08-29T14:32:07.506Z,4.78
2022-08-29T14:34:35.532Z,4.90
2022-08-29T14:37:04.068Z,4.68
2022-08-29T14:39:31.993Z,4.90
2022-08-29T14:41:59.844Z,5.15
2022-08-29T14:44:30.595Z,4.93
2022-08-29T14:49:26.461Z,4.22
2022-08-29T14:51:54.550Z,4.80
2022-08-29T14:54:22.561Z,4.53
2022-08-29T14:56:50.670Z,5.18
2022-08-29T14:59:20.683Z,5.70
2022-08-29T15:01:53.825Z,4.87
2022-08-29T15:04:34.991Z,4.82
2022-08-29T15:07:14.738Z,4.53
2022-08-29T15:09:45.040Z,4.07
2022-08-29T15:12:14.001Z,4.07
2022-08-29T15:14:42.787Z,4.05
2022-08-29T15:17:10.912Z,4.70
2022-08-29T15:20:34.222Z,4.18
2022-08-29T15:22:27.543Z,4.05
2022-08-29T15:24:55.577Z,4.40
2022-08-29T15:27:27.623Z,4.55
2022-08-29T15:29:56.506Z,4.70
2022-08-29T15:32:25.057Z,5.00
2022-08-29T15:34:52.891Z,4.35
2022-08-29T15:37:20.918Z,4.28
2022-08-29T15:39:54.485Z,4.18
2022-08-29T15:42:29.754Z,4.53
2022-08-29T15:45:00.008Z,4.68
2022-08-29T15:47:30.538Z,4.57
2022-08-29T15:49:58.701Z,4.20
2022-08-29T15:52:26.731Z,4.47
2022-08-29T15:54:54.812Z,4.40
2022-08-29T15:57:22.853Z,4.75
2022-08-29T15:59:58.813Z,4.57
2022-08-29T16:02:27.539Z,4.55
2022-08-29T16:04:57.874Z,4.82
2022-08-29T16:07:28.904Z,4.90
2022-08-29T16:09:57.692Z,4.65
2022-08-29T16:12:25.891Z,5.00
2022-08-29T16:15:03.641Z,5.85
2022-08-29T16:17:34.044Z,5.50
2022-08-29T16:20:02.671Z,5.45
2022-08-29T16:22:31.227Z,6.03
2022-08-29T16:24:59.787Z,5.78
2022-08-29T16:27:27.650Z,5.35
2022-08-29T16:29:56.206Z,5.47
2022-08-29T16:32:24.068Z,5.35
2022-08-29T16:34:52.532Z,5.25
2022-08-29T16:37:20.706Z,5.40
2022-08-29T16:39:48.917Z,6.13
2022-08-29T16:42:17.106Z,5.47
2022-08-29T16:44:45.349Z,5.30
2022-08-29T16:47:13.503Z,5.97
2022-08-29T16:49:41.507Z,5.90
2022-08-29T16:52:09.521Z,5.68
2022-08-29T16:54:37.745Z,5.75
2022-08-29T16:57:05.970Z,4.88
2022-08-29T16:59:37.286Z,5.43
2022-08-29T17:02:05.624Z,6.15
2022-08-29T17:04:33.965Z,5.32
2022-08-29T17:07:02.476Z,5.85
2022-08-29T17:09:30.414Z,6.50
2022-08-29T17:11:59.972Z,6.10
2022-08-29T17:14:30.076Z,5.97
2022-08-29T17:16:58.127Z,5.45
2022-08-29T17:19:26.208Z,6.18
2022-08-29T17:21:54.852Z,6.90
2022-08-29T17:24:24.339Z,7.75
2022-08-29T17:26:53.096Z,7.22
2022-08-29T17:29:21.045Z,6.38
2022-08-29T17:31:49.130Z,6.75
2022-08-29T17:34:17.488Z,6.80
2022-08-29T17:36:45.550Z,6.28
2022-08-29T17:39:14.117Z,6.55
2022-08-29T17:41:42.955Z,6.05
2022-08-29T17:44:12.902Z,6.57
2022-08-29T17:46:40.748Z,6.80
2022-08-29T17:49:11.705Z,7.75
2022-08-29T17:51:40.556Z,6.93
2022-08-29T17:54:14.948Z,7.65
2022-08-29T17:56:44.836Z,7.20
2022-08-29T17:59:13.581Z,6.35
2022-08-29T18:01:41.572Z,7.07
2022-08-29T18:04:09.583Z,8.07
2022-08-29T18:06:37.779Z,7.03
2022-08-29T18:09:05.920Z,6.97
2022-08-29T18:11:33.716Z,7.72
2022-08-29T18:14:02.520Z,8.07
2022-08-29T18:16:30.564Z,7.22
2022-08-29T18:18:58.476Z,7.25
2022-08-29T18:21:27.178Z,6.90
2022-08-29T18:23:55.214Z,8.10
2022-08-29T18:26:23.120Z,7.78
2022-08-29T18:28:51.165Z,7.25
2022-08-29T18:31:20.045Z,7.97
2022-08-29T18:34:04.391Z,7.97
2022-08-29T18:36:34.216Z,7.82
2022-08-29T18:39:02.982Z,8.50
2022-08-29T18:41:30.993Z,8.27
2022-08-29T18:44:00.162Z,8.93
2022-08-29T18:46:28.284Z,9.00
2022-08-29T18:48:56.694Z,8.57
2022-08-29T18:51:25.883Z,9.68
2022-08-29T18:53:53.804Z,9.05
2022-08-29T18:56:22.088Z,8.95
2022-08-29T18:58:54.840Z,9.20
2022-08-29T19:01:29.856Z,9.00
2022-08-29T19:03:59.207Z,8.32
2022-08-29T19:06:27.717Z,8.80
2022-08-29T19:08:56.826Z,8.93
2022-08-29T19:11:25.818Z,8.82
2022-08-29T19:13:54.022Z,8.85
2022-08-29T19:16:23.195Z,7.60
2022-08-29T19:18:51.359Z,8.02
2022-08-29T19:21:19.981Z,8.70
2022-08-29T19:23:52.202Z,8.02
2022-08-29T19:26:23.832Z,8.98
2022-08-29T19:28:54.091Z,8.80
2022-08-29T19:31:24.106Z,8.30
2022-08-29T19:33:52.318Z,7.25
2022-08-29T19:36:21.765Z,7.45
2022-08-29T19:38:50.847Z,7.10
2022-08-29T19:41:18.799Z,7.47
2022-08-29T19:43:47.832Z,8.77
2022-08-29T19:46:18.069Z,8.35
2022-08-29T19:48:48.587Z,8.97
2022-08-29T19:51:19.811Z,7.70
2022-08-29T19:53:52.299Z,9.27
2022-08-29T19:56:20.358Z,10.15
2022-08-29T19:58:49.523Z,10.73
2022-08-29T20:01:18.312Z,10.98
2022-08-29T20:03:46.198Z,10.85
2022-08-29T20:06:14.020Z,10.68
2022-08-29T20:08:43.278Z,10.88
2022-08-29T20:11:15.945Z,10.50
2022-08-29T20:13:50.096Z,10.10
2022-08-29T20:16:19.972Z,9.38
2022-08-29T20:18:50.269Z,9.70
2022-08-29T20:21:19.313Z,10.40
2022-08-29T20:23:49.373Z,11.13
2022-08-29T20:26:17.969Z,11.63
2022-08-29T20:28:45.920Z,11.15
2022-08-29T20:31:14.111Z,12.02
2022-08-29T20:33:43.847Z,11.10
2022-08-29T20:36:30.488Z,11.25
2022-08-29T20:38:58.202Z,12.27
2022-08-29T20:41:25.929Z,11.68
2022-08-29T20:43:53.816Z,11.65
2022-08-29T20:46:22.240Z,12.27
2022-08-29T20:48:50.659Z,12.95
2022-08-29T20:51:18.530Z,11.48
2022-08-29T20:53:46.293Z,11.48
2022-08-29T20:56:14.096Z,12.50
2022-08-29T20:58:42.017Z,12.55
2022-08-29T21:01:10.154Z,12.52
2022-08-29T21:03:56.895Z,12.20
2022-08-29T21:06:24.946Z,10.07
2022-08-29T21:08:53.304Z,8.65
2022-08-29T21:11:22.369Z,8.27
2022-08-29T21:13:53.287Z,8.35
2022-08-29T21:16:22.216Z,9.55
2022-08-29T21:18:53.823Z,9.00
2022-08-29T21:21:24.889Z,8.23
2022-08-29T21:23:53.254Z,9.20
2022-08-29T21:26:21.290Z,9.15
2022-08-29T21:28:49.256Z,9.85
2022-08-29T21:31:18.274Z,9.15
2022-08-29T21:33:46.682Z,9.70
2022-08-29T21:36:15.939Z,10.75
2022-08-29T21:38:43.667Z,11.65
2022-08-29T21:41:15.213Z,10.75
2022-08-29T21:43:43.716Z,11.43
2022-08-29T21:46:20.951Z,11.10
2022-08-29T21:48:51.656Z,9.93
2022-08-29T21:51:23.048Z,10.40
2022-08-29T21:53:51.662Z,9.75
2022-08-29T21:56:19.838Z,10.65
2022-08-29T21:58:54.081Z,9.98
2022-08-29T22:01:23.649Z,10.02
2022-08-29T22:03:51.802Z,9.80
2022-08-29T22:06:20.301Z,10.52
2022-08-29T22:08:48.482Z,10.45
2022-08-29T22:11:37.041Z,9.90
2022-08-29T22:14:07.355Z,10.02
2022-08-29T22:16:35.768Z,10.93
2022-08-29T22:19:03.684Z,10.80
2022-08-29T22:21:34.516Z,10.70
2022-08-29T22:24:02.936Z,10.77
2022-08-29T22:26:31.017Z,11.32
2022-08-29T22:28:59.036Z,11.50
2022-08-29T22:31:27.568Z,10.52
2022-08-29T22:33:55.811Z,10.85
2022-08-29T22:36:24.786Z,10.57
2022-08-29T22:38:56.655Z,9.60
2022-08-29T22:41:25.588Z,8.55
2022-08-29T22:44:16.508Z,8.73
2022-08-29T22:46:45.809Z,8.20
2022-08-29T22:49:14.034Z,7.60
2022-08-29T22:51:42.031Z,7.90
2022-08-29T22:54:28.929Z,7.50
2022-08-29T22:56:56.958Z,7.45
2022-08-29T22:59:24.976Z,7.40
2022-08-29T23:01:53.207Z,7.93
2022-08-29T23:04:21.694Z,8.60
2022-08-29T23:06:49.339Z,7.78
2022-08-29T23:09:17.713Z,8.55
2022-08-29T23:11:46.103Z,8.45
2022-08-29T23:14:14.124Z,8.52
2022-08-29T23:16:42.953Z,8.43
2022-08-29T23:19:12.883Z,9.40
2022-08-29T23:21:41.292Z,10.20
2022-08-29T23:24:10.708Z,8.65
2022-08-29T23:26:38.920Z,8.13
2022-08-29T23:29:06.695Z,9.02
2022-08-29T23:31:34.810Z,8.20
2022-08-29T23:34:02.847Z,8.05
2022-08-29T23:36:30.838Z,6.90
2022-08-29T23:38:58.773Z,7.57
2022-08-29T23:41:26.859Z,7.18
2022-08-29T23:43:55.347Z,7.88
2022-08-29T23:46:24.287Z,8.32
2022-08-29T23:48:52.611Z,8.63
2022-08-29T23:51:21.762Z,9.43
2022-08-29T23:53:49.878Z,9.73
2022-08-29T23:56:19.134Z,8.63
2022-08-29T23:58:47.436Z,7.95
